No particular awareness of the weather is required.    There are no Weather-warnings


Meteo18 Weather Cam more information Meteo18 Weather Cam


Thunder radar more information blitzortung!


Rain radar more information rain snow radar


Visit our other weather sites:

Template documentation
and downloads

And another site



Weather Underground History page Text

Daily Summary for January 26, 2017 Units:  Both    English   Metric
« Previous Day
Next Day »
Daily Weekly Monthly Yearly Custom
  High: Low: Average:
Temperature: 41.9 °F /  5.5 °C 17.8 °F /  -7.9 °C 29.3 °F /  -1.5 °C
Dew Point: 34.7 °F /  1.5 °C 15.6 °F /  -9.1 °C 23.4 °F /  -4.8 °C
Humidity: 92 % 57 % 79 %
Wind Speed: 13 mph /  20.9 km/h - 2.2 mph /  3.6 km/h
Wind Gust: 19 mph /  30.6 km/h - -
Wind:- - East
Pressure: 30.3 in /  1024.9 hPa 30 in /  1015.5 hPa -
Precipitation: 0.01 in /  0.3 mm    
Historical Graphs
 
 
Tabular Data for January 26, 2017
Time Temperature Dew Point Pressure Wind Wind Speed Wind Gust Humidity Rainfall Rate (Hourly)
00:02 23 °F /  -5.0 °C 19.2 °F /  -7.1 °C 30.3 in /  1024.9 hPa Calm   3 mph /  4.8 km/h 85 % 0 in /  0.0 mm
00:12 22.8 °F /  -5.1 °C 19 °F /  -7.2 °C 30.3 in /  1024.9 hPa Calm   3 mph /  4.8 km/h 85 % 0 in /  0.0 mm
00:17 22.6 °F /  -5.2 °C 19 °F /  -7.2 °C 30.3 in /  1024.9 hPa Calm   1 mph /  1.6 km/h 86 % 0 in /  0.0 mm
00:22 22.6 °F /  -5.2 °C 19 °F /  -7.2 °C 30.3 in /  1024.9 hPa Calm   1 mph /  1.6 km/h 86 % 0 in /  0.0 mm
00:27 22.6 °F /  -5.2 °C 19 °F /  -7.2 °C 30.3 in /  1024.6 hPa Calm   1 mph /  1.6 km/h 86 % 0 in /  0.0 mm
00:32 22.5 °F /  -5.3 °C 18.9 °F /  -7.3 °C 30.3 in /  1024.6 hPa Calm   1 mph /  1.6 km/h 86 % 0 in /  0.0 mm
00:37 22.3 °F /  -5.4 °C 19 °F /  -7.2 °C 30.3 in /  1024.6 hPa Calm   1 mph /  1.6 km/h 87 % 0 in /  0.0 mm
00:42 22.3 °F /  -5.4 °C 19 °F /  -7.2 °C 30.3 in /  1024.6 hPa ENE 1 mph /  1.6 km/h 1 mph /  1.6 km/h 87 % 0 in /  0.0 mm
00:52 22.5 °F /  -5.3 °C 18.9 °F /  -7.3 °C 30.3 in /  1024.9 hPa ENE 1 mph /  1.6 km/h 1 mph /  1.6 km/h 86 % 0 in /  0.0 mm
00:57 22.5 °F /  -5.3 °C 18.9 °F /  -7.3 °C 30.3 in /  1024.9 hPa NE 1 mph /  1.6 km/h 3 mph /  4.8 km/h 86 % 0 in /  0.0 mm
01:02 22.3 °F /  -5.4 °C 18.7 °F /  -7.4 °C 30.3 in /  1024.9 hPa ENE 3 mph /  4.8 km/h 3 mph /  4.8 km/h 86 % 0 in /  0.0 mm
01:12 21.9 °F /  -5.6 °C 18.7 °F /  -7.4 °C 30.3 in /  1024.9 hPa Calm   4 mph /  6.4 km/h 87 % 0 in /  0.0 mm
01:17 21.7 °F /  -5.7 °C 18.5 °F /  -7.5 °C 30.3 in /  1024.9 hPa NNE 2 mph /  3.2 km/h 4 mph /  6.4 km/h 87 % 0 in /  0.0 mm
01:22 21.7 °F /  -5.7 °C 18.5 °F /  -7.5 °C 30.3 in /  1024.9 hPa Calm   4 mph /  6.4 km/h 87 % 0 in /  0.0 mm
01:27 21.7 °F /  -5.7 °C 18.5 °F /  -7.5 °C 30.3 in /  1024.9 hPa Calm   3 mph /  4.8 km/h 87 % 0 in /  0.0 mm
01:32 21.6 °F /  -5.8 °C 18.3 °F /  -7.6 °C 30.3 in /  1024.9 hPa Calm   3 mph /  4.8 km/h 87 % 0 in /  0.0 mm
01:37 21.6 °F /  -5.8 °C 18.5 °F /  -7.5 °C 30.3 in /  1024.6 hPa Calm   2 mph /  3.2 km/h 88 % 0 in /  0.0 mm
01:42 21.6 °F /  -5.8 °C 18.5 °F /  -7.5 °C 30.3 in /  1024.6 hPa ENE 1 mph /  1.6 km/h 2 mph /  3.2 km/h 88 % 0 in /  0.0 mm
01:47 21.4 °F /  -5.9 °C 18.3 °F /  -7.6 °C 30.3 in /  1024.6 hPa ENE 2 mph /  3.2 km/h 2 mph /  3.2 km/h 88 % 0 in /  0.0 mm
01:52 21.6 °F /  -5.8 °C 18.5 °F /  -7.5 °C 30.3 in /  1024.6 hPa East 2 mph /  3.2 km/h 2 mph /  3.2 km/h 88 % 0 in /  0.0 mm
01:57 21.4 °F /  -5.9 °C 18.1 °F /  -7.7 °C 30.3 in /  1024.6 hPa East 2 mph /  3.2 km/h 4 mph /  6.4 km/h 87 % 0 in /  0.0 mm
02:02 21.2 °F /  -6.0 °C 18.1 °F /  -7.7 °C 30.3 in /  1024.6 hPa ENE 1 mph /  1.6 km/h 4 mph /  6.4 km/h 88 % 0 in /  0.0 mm
02:12 21.4 °F /  -5.9 °C 18.3 °F /  -7.6 °C 30.3 in /  1024.6 hPa Calm   4 mph /  6.4 km/h 88 % 0 in /  0.0 mm
02:17 21.2 °F /  -6.0 °C 18.1 °F /  -7.7 °C 30.3 in /  1024.3 hPa ENE 2 mph /  3.2 km/h 3 mph /  4.8 km/h 88 % 0 in /  0.0 mm
02:22 21 °F /  -6.1 °C 18 °F /  -7.8 °C 30.3 in /  1024.3 hPa ENE 1 mph /  1.6 km/h 3 mph /  4.8 km/h 88 % 0 in /  0.0 mm
02:32 21 °F /  -6.1 °C 18 °F /  -7.8 °C 30.3 in /  1024.3 hPa Calm   3 mph /  4.8 km/h 88 % 0 in /  0.0 mm
02:37 21 °F /  -6.1 °C 18 °F /  -7.8 °C 30.2 in /  1023.9 hPa NE 1 mph /  1.6 km/h 3 mph /  4.8 km/h 88 % 0 in /  0.0 mm
02:42 21 °F /  -6.1 °C 18.3 °F /  -7.6 °C 30.2 in /  1023.9 hPa Calm   3 mph /  4.8 km/h 89 % 0 in /  0.0 mm
02:47 21 °F /  -6.1 °C 18.3 °F /  -7.6 °C 30.2 in /  1023.9 hPa Calm   2 mph /  3.2 km/h 89 % 0 in /  0.0 mm
02:52 21 °F /  -6.1 °C 18 °F /  -7.8 °C 30.2 in /  1023.9 hPa Calm   2 mph /  3.2 km/h 88 % 0 in /  0.0 mm
02:57 21 °F /  -6.1 °C 18 °F /  -7.8 °C 30.2 in /  1023.9 hPa Calm   2 mph /  3.2 km/h 88 % 0 in /  0.0 mm
03:02 20.7 °F /  -6.3 °C 17.6 °F /  -8.0 °C 30.2 in /  1023.9 hPa Calm   1 mph /  1.6 km/h 88 % 0 in /  0.0 mm
03:12 20.3 °F /  -6.5 °C 17.6 °F /  -8.0 °C 30.2 in /  1023.6 hPa Calm   1 mph /  1.6 km/h 89 % 0 in /  0.0 mm
03:17 20.1 °F /  -6.6 °C 17.4 °F /  -8.1 °C 30.2 in /  1023.6 hPa Calm   1 mph /  1.6 km/h 89 % 0 in /  0.0 mm
03:22 20.1 °F /  -6.6 °C 17.4 °F /  -8.1 °C 30.2 in /  1023.6 hPa Calm   1 mph /  1.6 km/h 89 % 0 in /  0.0 mm
03:27 20.1 °F /  -6.6 °C 17.4 °F /  -8.1 °C 30.2 in /  1023.6 hPa Calm   1 mph /  1.6 km/h 89 % 0 in /  0.0 mm
03:32 20.5 °F /  -6.4 °C 17.8 °F /  -7.9 °C 30.2 in /  1023.6 hPa NNE 1 mph /  1.6 km/h 1 mph /  1.6 km/h 89 % 0 in /  0.0 mm
03:37 20.5 °F /  -6.4 °C 17.8 °F /  -7.9 °C 30.2 in /  1023.6 hPa NE 1 mph /  1.6 km/h 1 mph /  1.6 km/h 89 % 0 in /  0.0 mm
03:42 20.7 °F /  -6.3 °C 18 °F /  -7.8 °C 30.2 in /  1023.6 hPa NE 1 mph /  1.6 km/h 2 mph /  3.2 km/h 89 % 0 in /  0.0 mm
03:47 20.7 °F /  -6.3 °C 18 °F /  -7.8 °C 30.2 in /  1023.6 hPa NE 3 mph /  4.8 km/h 3 mph /  4.8 km/h 89 % 0 in /  0.0 mm
03:52 20.8 °F /  -6.2 °C 18.1 °F /  -7.7 °C 30.2 in /  1023.6 hPa NE 1 mph /  1.6 km/h 2 mph /  3.2 km/h 89 % 0 in /  0.0 mm
03:57 20.7 °F /  -6.3 °C 18 °F /  -7.8 °C 30.2 in /  1023.2 hPa NNE 2 mph /  3.2 km/h 3 mph /  4.8 km/h 89 % 0 in /  0.0 mm
04:02 20.7 °F /  -6.3 °C 17.6 °F /  -8.0 °C 30.2 in /  1023.2 hPa NE 1 mph /  1.6 km/h 3 mph /  4.8 km/h 88 % 0 in /  0.0 mm
04:12 20.1 °F /  -6.6 °C 17.4 °F /  -8.1 °C 30.2 in /  1023.2 hPa Calm   3 mph /  4.8 km/h 89 % 0 in /  0.0 mm
04:17 19.9 °F /  -6.7 °C 17.2 °F /  -8.2 °C 30.2 in /  1023.2 hPa Calm   2 mph /  3.2 km/h 89 % 0 in /  0.0 mm
04:22 19.9 °F /  -6.7 °C 17.4 °F /  -8.1 °C 30.2 in /  1023.2 hPa NE 1 mph /  1.6 km/h 2 mph /  3.2 km/h 90 % 0 in /  0.0 mm
04:27 20.1 °F /  -6.6 °C 17.6 °F /  -8.0 °C 30.2 in /  1023.2 hPa NE 2 mph /  3.2 km/h 2 mph /  3.2 km/h 90 % 0 in /  0.0 mm
04:32 20.1 °F /  -6.6 °C 17.6 °F /  -8.0 °C 30.2 in /  1023.2 hPa NE 2 mph /  3.2 km/h 3 mph /  4.8 km/h 90 % 0 in /  0.0 mm
04:37 20.1 °F /  -6.6 °C 17.4 °F /  -8.1 °C 30.2 in /  1023.2 hPa NE 2 mph /  3.2 km/h 4 mph /  6.4 km/h 89 % 0 in /  0.0 mm
04:42 19.9 °F /  -6.7 °C 17.2 °F /  -8.2 °C 30.2 in /  1023.2 hPa NE 2 mph /  3.2 km/h 5 mph /  8.0 km/h 89 % 0 in /  0.0 mm
04:47 20.1 °F /  -6.6 °C 17.6 °F /  -8.0 °C 30.2 in /  1023.2 hPa NE 2 mph /  3.2 km/h 5 mph /  8.0 km/h 90 % 0 in /  0.0 mm
04:52 20.1 °F /  -6.6 °C 17.6 °F /  -8.0 °C 30.2 in /  1022.9 hPa NE 5 mph /  8.0 km/h 5 mph /  8.0 km/h 90 % 0 in /  0.0 mm
04:57 20.1 °F /  -6.6 °C 17.6 °F /  -8.0 °C 30.2 in /  1022.9 hPa ENE 3 mph /  4.8 km/h 5 mph /  8.0 km/h 90 % 0 in /  0.0 mm
05:02 20.1 °F /  -6.6 °C 17.6 °F /  -8.0 °C 30.2 in /  1022.9 hPa NE 2 mph /  3.2 km/h 5 mph /  8.0 km/h 90 % 0 in /  0.0 mm
05:07 20.1 °F /  -6.6 °C 17.6 °F /  -8.0 °C 30.2 in /  1022.9 hPa NE 2 mph /  3.2 km/h 5 mph /  8.0 km/h 90 % 0 in /  0.0 mm
05:12 20.1 °F /  -6.6 °C 17.6 °F /  -8.0 °C 30.2 in /  1022.9 hPa NE 5 mph /  8.0 km/h 5 mph /  8.0 km/h 90 % 0 in /  0.0 mm
05:17 20.1 °F /  -6.6 °C 17.4 °F /  -8.1 °C 30.2 in /  1022.9 hPa NE 3 mph /  4.8 km/h 5 mph /  8.0 km/h 89 % 0 in /  0.0 mm
05:22 19.9 °F /  -6.7 °C 17.4 °F /  -8.1 °C 30.2 in /  1022.9 hPa ENE 2 mph /  3.2 km/h 5 mph /  8.0 km/h 90 % 0 in /  0.0 mm
05:27 20.1 °F /  -6.6 °C 17.6 °F /  -8.0 °C 30.2 in /  1022.6 hPa NE 3 mph /  4.8 km/h 5 mph /  8.0 km/h 90 % 0 in /  0.0 mm
05:32 19.9 °F /  -6.7 °C 17.4 °F /  -8.1 °C 30.2 in /  1022.6 hPa NE 2 mph /  3.2 km/h 4 mph /  6.4 km/h 90 % 0 in /  0.0 mm
05:37 19.9 °F /  -6.7 °C 17.4 °F /  -8.1 °C 30.2 in /  1022.6 hPa NE 3 mph /  4.8 km/h 4 mph /  6.4 km/h 90 % 0 in /  0.0 mm
05:42 19.9 °F /  -6.7 °C 17.4 °F /  -8.1 °C 30.2 in /  1022.6 hPa NE 4 mph /  6.4 km/h 4 mph /  6.4 km/h 90 % 0 in /  0.0 mm
05:47 19.9 °F /  -6.7 °C 17.4 °F /  -8.1 °C 30.2 in /  1022.6 hPa NE 5 mph /  8.0 km/h 5 mph /  8.0 km/h 90 % 0 in /  0.0 mm
05:52 19.9 °F /  -6.7 °C 17.4 °F /  -8.1 °C 30.2 in /  1022.6 hPa NNE 4 mph /  6.4 km/h 5 mph /  8.0 km/h 90 % 0 in /  0.0 mm
05:57 20.1 °F /  -6.6 °C 17.6 °F /  -8.0 °C 30.2 in /  1022.6 hPa NE 2 mph /  3.2 km/h 5 mph /  8.0 km/h 90 % 0 in /  0.0 mm
06:02 19.9 °F /  -6.7 °C 17.4 °F /  -8.1 °C 30.2 in /  1022.6 hPa NE 1 mph /  1.6 km/h 6 mph /  9.7 km/h 90 % 0 in /  0.0 mm
06:07 19.9 °F /  -6.7 °C 17.4 °F /  -8.1 °C 30.2 in /  1022.6 hPa NE 3 mph /  4.8 km/h 6 mph /  9.7 km/h 90 % 0 in /  0.0 mm
06:12 19.8 °F /  -6.8 °C 17.2 °F /  -8.2 °C 30.2 in /  1022.6 hPa NNE 1 mph /  1.6 km/h 5 mph /  8.0 km/h 90 % 0 in /  0.0 mm
06:17 19.8 °F /  -6.8 °C 17.2 °F /  -8.2 °C 30.2 in /  1022.6 hPa NNE 1 mph /  1.6 km/h 5 mph /  8.0 km/h 90 % 0 in /  0.0 mm
06:22 19.6 °F /  -6.9 °C 17.1 °F /  -8.3 °C 30.2 in /  1022.6 hPa NNE 1 mph /  1.6 km/h 3 mph /  4.8 km/h 90 % 0 in /  0.0 mm
06:32 19.2 °F /  -7.1 °C 16.7 °F /  -8.5 °C 30.2 in /  1022.6 hPa Calm   3 mph /  4.8 km/h 90 % 0 in /  0.0 mm
06:42 19.2 °F /  -7.1 °C 17.1 °F /  -8.3 °C 30.2 in /  1022.6 hPa NNE 2 mph /  3.2 km/h 2 mph /  3.2 km/h 91 % 0 in /  0.0 mm
06:47 19.2 °F /  -7.1 °C 16.7 °F /  -8.5 °C 30.2 in /  1022.6 hPa NNE 2 mph /  3.2 km/h 2 mph /  3.2 km/h 90 % 0 in /  0.0 mm
06:52 19 °F /  -7.2 °C 16.9 °F /  -8.4 °C 30.2 in /  1022.2 hPa NNE 1 mph /  1.6 km/h 4 mph /  6.4 km/h 91 % 0 in /  0.0 mm
07:02 19 °F /  -7.2 °C 16.9 °F /  -8.4 °C 30.2 in /  1022.2 hPa NNE 2 mph /  3.2 km/h 4 mph /  6.4 km/h 91 % 0 in /  0.0 mm
07:07 19 °F /  -7.2 °C 16.9 °F /  -8.4 °C 30.2 in /  1022.2 hPa NNE 1 mph /  1.6 km/h 4 mph /  6.4 km/h 91 % 0 in /  0.0 mm
07:17 18.9 °F /  -7.3 °C 16.7 °F /  -8.5 °C 30.2 in /  1022.2 hPa NNE 1 mph /  1.6 km/h 3 mph /  4.8 km/h 91 % 0 in /  0.0 mm
07:22 18.9 °F /  -7.3 °C 16.7 °F /  -8.5 °C 30.2 in /  1022.2 hPa Calm   2 mph /  3.2 km/h 91 % 0 in /  0.0 mm
07:27 18.9 °F /  -7.3 °C 16.7 °F /  -8.5 °C 30.2 in /  1022.2 hPa Calm   2 mph /  3.2 km/h 91 % 0 in /  0.0 mm
07:32 18.7 °F /  -7.4 °C 16.5 °F /  -8.6 °C 30.2 in /  1022.2 hPa Calm   2 mph /  3.2 km/h 91 % 0 in /  0.0 mm
07:37 18.5 °F /  -7.5 °C 16.3 °F /  -8.7 °C 30.2 in /  1022.2 hPa Calm   2 mph /  3.2 km/h 91 % 0 in /  0.0 mm
07:42 18.3 °F /  -7.6 °C 16.2 °F /  -8.8 °C 30.2 in /  1022.2 hPa Calm     91 % 0 in /  0.0 mm
07:47 18.3 °F /  -7.6 °C 16.2 °F /  -8.8 °C 30.2 in /  1022.2 hPa Calm     91 % 0 in /  0.0 mm
07:52 18.1 °F /  -7.7 °C 16.2 °F /  -8.8 °C 30.2 in /  1022.2 hPa Calm     92 % 0 in /  0.0 mm
07:57 18.1 °F /  -7.7 °C 16.2 °F /  -8.8 °C 30.2 in /  1022.2 hPa Calm     92 % 0 in /  0.0 mm
08:02 18.3 °F /  -7.6 °C 16.3 °F /  -8.7 °C 30.2 in /  1022.2 hPa Calm   1 mph /  1.6 km/h 92 % 0 in /  0.0 mm
08:07 18.3 °F /  -7.6 °C 16.3 °F /  -8.7 °C 30.2 in /  1022.2 hPa Calm   1 mph /  1.6 km/h 92 % 0 in /  0.0 mm
08:12 18.1 °F /  -7.7 °C 16.2 °F /  -8.8 °C 30.2 in /  1022.2 hPa Calm   1 mph /  1.6 km/h 92 % 0 in /  0.0 mm
08:17 18.1 °F /  -7.7 °C 16 °F /  -8.9 °C 30.2 in /  1022.2 hPa Calm   1 mph /  1.6 km/h 91 % 0 in /  0.0 mm
08:22 18 °F /  -7.8 °C 16 °F /  -8.9 °C 30.2 in /  1022.2 hPa Calm   1 mph /  1.6 km/h 92 % 0 in /  0.0 mm
08:27 17.8 °F /  -7.9 °C 15.6 °F /  -9.1 °C 30.2 in /  1022.2 hPa Calm   1 mph /  1.6 km/h 91 % 0 in /  0.0 mm
08:32 18.1 °F /  -7.7 °C 16.2 °F /  -8.8 °C 30.2 in /  1022.2 hPa Calm   1 mph /  1.6 km/h 92 % 0 in /  0.0 mm
08:37 18.1 °F /  -7.7 °C 16.2 °F /  -8.8 °C 30.2 in /  1022.2 hPa Calm   1 mph /  1.6 km/h 92 % 0 in /  0.0 mm
08:42 18.3 °F /  -7.6 °C 16.3 °F /  -8.7 °C 30.2 in /  1022.2 hPa Calm   1 mph /  1.6 km/h 92 % 0 in /  0.0 mm
08:47 18.7 °F /  -7.4 °C 16.7 °F /  -8.5 °C 30.2 in /  1022.2 hPa Calm   1 mph /  1.6 km/h 92 % 0 in /  0.0 mm
08:52 18.7 °F /  -7.4 °C 16.5 °F /  -8.6 °C 30.2 in /  1021.9 hPa Calm   1 mph /  1.6 km/h 91 % 0 in /  0.0 mm
08:57 19 °F /  -7.2 °C 17.1 °F /  -8.3 °C 30.2 in /  1021.9 hPa Calm   1 mph /  1.6 km/h 92 % 0 in /  0.0 mm
09:02 19.6 °F /  -6.9 °C 17.4 °F /  -8.1 °C 30.2 in /  1021.9 hPa Calm   1 mph /  1.6 km/h 91 % 0 in /  0.0 mm
09:07 19.8 °F /  -6.8 °C 17.6 °F /  -8.0 °C 30.2 in /  1021.9 hPa Calm   1 mph /  1.6 km/h 91 % 0 in /  0.0 mm
09:12 20.1 °F /  -6.6 °C 17.6 °F /  -8.0 °C 30.2 in /  1021.9 hPa Calm     90 % 0 in /  0.0 mm
09:17 20.5 °F /  -6.4 °C 18 °F /  -7.8 °C 30.2 in /  1021.9 hPa Calm     90 % 0 in /  0.0 mm
09:22 20.8 °F /  -6.2 °C 18.1 °F /  -7.7 °C 30.2 in /  1021.9 hPa Calm     89 % 0 in /  0.0 mm
09:27 21 °F /  -6.1 °C 18.3 °F /  -7.6 °C 30.2 in /  1021.9 hPa Calm     89 % 0 in /  0.0 mm
09:32 21.6 °F /  -5.8 °C 19 °F /  -7.2 °C 30.2 in /  1021.9 hPa Calm     90 % 0 in /  0.0 mm
09:37 22.3 °F /  -5.4 °C 19.6 °F /  -6.9 °C 30.2 in /  1022.2 hPa Calm     89 % 0 in /  0.0 mm
09:42 23.2 °F /  -4.9 °C 19.9 °F /  -6.7 °C 30.2 in /  1022.2 hPa Calm   2 mph /  3.2 km/h 87 % 0 in /  0.0 mm
09:47 23.4 °F /  -4.8 °C 19.8 °F /  -6.8 °C 30.2 in /  1022.2 hPa Calm   2 mph /  3.2 km/h 86 % 0 in /  0.0 mm
09:52 23.7 °F /  -4.6 °C 19.9 °F /  -6.7 °C 30.2 in /  1021.9 hPa East 1 mph /  1.6 km/h 3 mph /  4.8 km/h 85 % 0 in /  0.0 mm
09:57 23.9 °F /  -4.5 °C 20.1 °F /  -6.6 °C 30.2 in /  1021.9 hPa ENE 2 mph /  3.2 km/h 3 mph /  4.8 km/h 85 % 0 in /  0.0 mm
10:02 24.1 °F /  -4.4 °C 20.3 °F /  -6.5 °C 30.2 in /  1021.9 hPa NE 1 mph /  1.6 km/h 5 mph /  8.0 km/h 85 % 0 in /  0.0 mm
10:07 24.4 °F /  -4.2 °C 20.7 °F /  -6.3 °C 30.2 in /  1022.2 hPa Calm   5 mph /  8.0 km/h 85 % 0 in /  0.0 mm
10:12 24.8 °F /  -4.0 °C 20.3 °F /  -6.5 °C 30.2 in /  1021.9 hPa Calm   5 mph /  8.0 km/h 83 % 0 in /  0.0 mm
10:17 25 °F /  -3.9 °C 20.5 °F /  -6.4 °C 30.2 in /  1021.9 hPa ENE 2 mph /  3.2 km/h 5 mph /  8.0 km/h 83 % 0 in /  0.0 mm
10:22 24.6 °F /  -4.1 °C 20.1 °F /  -6.6 °C 30.2 in /  1021.9 hPa Calm   5 mph /  8.0 km/h 83 % 0 in /  0.0 mm
10:27 25.2 °F /  -3.8 °C 20.7 °F /  -6.3 °C 30.2 in /  1021.9 hPa Calm   5 mph /  8.0 km/h 83 % 0 in /  0.0 mm
10:32 25.3 °F /  -3.7 °C 20.8 °F /  -6.2 °C 30.2 in /  1021.6 hPa Calm   6 mph /  9.7 km/h 83 % 0 in /  0.0 mm
10:42 25.5 °F /  -3.6 °C 21 °F /  -6.1 °C 30.2 in /  1021.9 hPa Calm   3 mph /  4.8 km/h 83 % 0 in /  0.0 mm
10:47 25.9 °F /  -3.4 °C 21.4 °F /  -5.9 °C 30.2 in /  1021.6 hPa ENE 1 mph /  1.6 km/h 3 mph /  4.8 km/h 83 % 0 in /  0.0 mm
10:52 26.2 °F /  -3.2 °C 21.7 °F /  -5.7 °C 30.2 in /  1021.6 hPa Calm   3 mph /  4.8 km/h 83 % 0 in /  0.0 mm
11:02 27.3 °F /  -2.6 °C 22.8 °F /  -5.1 °C 30.2 in /  1021.6 hPa Calm   3 mph /  4.8 km/h 83 % 0 in /  0.0 mm
11:07 28.6 °F /  -1.9 °C 23.5 °F /  -4.7 °C 30.2 in /  1021.6 hPa ENE 3 mph /  4.8 km/h 3 mph /  4.8 km/h 81 % 0 in /  0.0 mm
11:12 28 °F /  -2.2 °C 22.6 °F /  -5.2 °C 30.2 in /  1021.6 hPa ESE 1 mph /  1.6 km/h 5 mph /  8.0 km/h 80 % 0 in /  0.0 mm
11:17 28 °F /  -2.2 °C 22.5 °F /  -5.3 °C 30.2 in /  1021.6 hPa East 3 mph /  4.8 km/h 5 mph /  8.0 km/h 79 % 0 in /  0.0 mm
11:22 28.2 °F /  -2.1 °C 22.6 °F /  -5.2 °C 30.2 in /  1021.6 hPa SSE 3 mph /  4.8 km/h 5 mph /  8.0 km/h 79 % 0 in /  0.0 mm
11:27 28.6 °F /  -1.9 °C 22.8 °F /  -5.1 °C 30.2 in /  1021.6 hPa East 3 mph /  4.8 km/h 5 mph /  8.0 km/h 79 % 0 in /  0.0 mm
11:32 29.1 °F /  -1.6 °C 23.4 °F /  -4.8 °C 30.2 in /  1021.6 hPa Calm   5 mph /  8.0 km/h 79 % 0 in /  0.0 mm
11:37 29.5 °F /  -1.4 °C 23.5 °F /  -4.7 °C 30.2 in /  1021.6 hPa ESE 3 mph /  4.8 km/h 5 mph /  8.0 km/h 78 % 0 in /  0.0 mm
11:42 29.7 °F /  -1.3 °C 23.7 °F /  -4.6 °C 30.2 in /  1021.6 hPa ENE 4 mph /  6.4 km/h 7 mph /  11.3 km/h 78 % 0 in /  0.0 mm
11:52 30.4 °F /  -0.9 °C 24.1 °F /  -4.4 °C 30.2 in /  1021.6 hPa ENE 1 mph /  1.6 km/h 9 mph /  14.5 km/h 77 % 0 in /  0.0 mm
11:57 30.7 °F /  -0.7 °C 24.4 °F /  -4.2 °C 30.2 in /  1021.2 hPa East 3 mph /  4.8 km/h 9 mph /  14.5 km/h 77 % 0 in /  0.0 mm
12:07 30.7 °F /  -0.7 °C 23.7 °F /  -4.6 °C 30.2 in /  1021.2 hPa SE 1 mph /  1.6 km/h 7 mph /  11.3 km/h 75 % 0 in /  0.0 mm
12:12 31.5 °F /  -0.3 °C 24.8 °F /  -4.0 °C 30.2 in /  1021.2 hPa East 3 mph /  4.8 km/h 7 mph /  11.3 km/h 76 % 0 in /  0.0 mm
12:17 31.8 °F /  -0.1 °C 25.2 °F /  -3.8 °C 30.2 in /  1021.2 hPa East 4 mph /  6.4 km/h 6 mph /  9.7 km/h 76 % 0 in /  0.0 mm
12:22 32.4 °F /  0.2 °C 25.3 °F /  -3.7 °C 30.2 in /  1020.9 hPa SSE 1 mph /  1.6 km/h 6 mph /  9.7 km/h 75 % 0 in /  0.0 mm
12:32 32.9 °F /  0.5 °C 25.5 °F /  -3.6 °C 30.2 in /  1020.9 hPa SE 1 mph /  1.6 km/h 6 mph /  9.7 km/h 74 % 0 in /  0.0 mm
12:37 33.4 °F /  0.8 °C 25.7 °F /  -3.5 °C 30.2 in /  1020.9 hPa ENE 4 mph /  6.4 km/h 6 mph /  9.7 km/h 73 % 0 in /  0.0 mm
12:42 33.3 °F /  0.7 °C 25.2 °F /  -3.8 °C 30.1 in /  1020.5 hPa East 4 mph /  6.4 km/h 4 mph /  6.4 km/h 72 % 0 in /  0.0 mm
12:47 33.1 °F /  0.6 °C 25 °F /  -3.9 °C 30.1 in /  1020.5 hPa East 3 mph /  4.8 km/h 4 mph /  6.4 km/h 72 % 0 in /  0.0 mm
12:57 33.8 °F /  1.0 °C 25.3 °F /  -3.7 °C 30.1 in /  1020.5 hPa ENE 6 mph /  9.7 km/h 6 mph /  9.7 km/h 71 % 0 in /  0.0 mm
13:02 34 °F /  1.1 °C 25.5 °F /  -3.6 °C 30.1 in /  1020.5 hPa East 5 mph /  8.0 km/h 7 mph /  11.3 km/h 71 % 0 in /  0.0 mm
13:07 34.2 °F /  1.2 °C 25.7 °F /  -3.5 °C 30.1 in /  1020.5 hPa ESE 3 mph /  4.8 km/h 7 mph /  11.3 km/h 71 % 0 in /  0.0 mm
13:12 34.3 °F /  1.3 °C 25.9 °F /  -3.4 °C 30.1 in /  1020.5 hPa ESE 3 mph /  4.8 km/h 7 mph /  11.3 km/h 71 % 0 in /  0.0 mm
13:17 35.1 °F /  1.7 °C 26.2 °F /  -3.2 °C 30.1 in /  1020.5 hPa SE 4 mph /  6.4 km/h 7 mph /  11.3 km/h 70 % 0 in /  0.0 mm
13:22 35.1 °F /  1.7 °C 26.6 °F /  -3.0 °C 30.1 in /  1020.5 hPa SE 6 mph /  9.7 km/h 7 mph /  11.3 km/h 71 % 0 in /  0.0 mm
13:27 35.2 °F /  1.8 °C 26.4 °F /  -3.1 °C 30.1 in /  1020.5 hPa SSE 4 mph /  6.4 km/h 8 mph /  12.9 km/h 70 % 0 in /  0.0 mm
13:32 36 °F /  2.2 °C 26.8 °F /  -2.9 °C 30.1 in /  1020.5 hPa East 3 mph /  4.8 km/h 8 mph /  12.9 km/h 69 % 0 in /  0.0 mm
13:37 36.3 °F /  2.4 °C 26.4 °F /  -3.1 °C 30.1 in /  1020.2 hPa SE 7 mph /  11.3 km/h 8 mph /  12.9 km/h 67 % 0 in /  0.0 mm
13:42 37 °F /  2.8 °C 27.1 °F /  -2.7 °C 30.1 in /  1020.2 hPa South 2 mph /  3.2 km/h 12 mph /  19.3 km/h 67 % 0 in /  0.0 mm
13:47 37.6 °F /  3.1 °C 27.7 °F /  -2.4 °C 30.1 in /  1019.9 hPa SSE 5 mph /  8.0 km/h 12 mph /  19.3 km/h 67 % 0 in /  0.0 mm
13:52 37.6 °F /  3.1 °C 26.6 °F /  -3.0 °C 30.1 in /  1019.9 hPa SE 2 mph /  3.2 km/h 12 mph /  19.3 km/h 64 % 0 in /  0.0 mm
13:57 37.4 °F /  3.0 °C 26.8 °F /  -2.9 °C 30.1 in /  1019.9 hPa ESE 4 mph /  6.4 km/h 9 mph /  14.5 km/h 65 % 0 in /  0.0 mm
14:02 37.6 °F /  3.1 °C 27.3 °F /  -2.6 °C 30.1 in /  1019.9 hPa SE 4 mph /  6.4 km/h 9 mph /  14.5 km/h 66 % 0 in /  0.0 mm
14:07 37.6 °F /  3.1 °C 27 °F /  -2.8 °C 30.1 in /  1019.9 hPa ESE 4 mph /  6.4 km/h 8 mph /  12.9 km/h 65 % 0 in /  0.0 mm
14:12 38.1 °F /  3.4 °C 27.3 °F /  -2.6 °C 30.1 in /  1019.9 hPa East 4 mph /  6.4 km/h 8 mph /  12.9 km/h 65 % 0 in /  0.0 mm
14:17 38.5 °F /  3.6 °C 27 °F /  -2.8 °C 30.1 in /  1019.9 hPa ENE 3 mph /  4.8 km/h 8 mph /  12.9 km/h 63 % 0 in /  0.0 mm
14:22 39 °F /  3.9 °C 27.1 °F /  -2.7 °C 30.1 in /  1019.5 hPa East 5 mph /  8.0 km/h 8 mph /  12.9 km/h 62 % 0 in /  0.0 mm
14:27 39 °F /  3.9 °C 26.8 °F /  -2.9 °C 30.1 in /  1019.2 hPa ENE 8 mph /  12.9 km/h 8 mph /  12.9 km/h 61 % 0 in /  0.0 mm
14:32 39.2 °F /  4.0 °C 27 °F /  -2.8 °C 30.1 in /  1019.5 hPa East 8 mph /  12.9 km/h 11 mph /  17.7 km/h 61 % 0 in /  0.0 mm
14:37 39.4 °F /  4.1 °C 27.1 °F /  -2.7 °C 30.1 in /  1018.8 hPa East 5 mph /  8.0 km/h 11 mph /  17.7 km/h 61 % 0 in /  0.0 mm
14:42 39.6 °F /  4.2 °C 27.1 °F /  -2.7 °C 30.1 in /  1018.8 hPa East 4 mph /  6.4 km/h 11 mph /  17.7 km/h 61 % 0 in /  0.0 mm
14:47 39.7 °F /  4.3 °C 27.3 °F /  -2.6 °C 30.1 in /  1018.8 hPa East 3 mph /  4.8 km/h 10 mph /  16.1 km/h 61 % 0 in /  0.0 mm
14:52 40.3 °F /  4.6 °C 27.9 °F /  -2.3 °C 30.1 in /  1019.2 hPa SE 2 mph /  3.2 km/h 10 mph /  16.1 km/h 61 % 0 in /  0.0 mm
14:57 40.3 °F /  4.6 °C 27.5 °F /  -2.5 °C 30.1 in /  1019.2 hPa ESE 2 mph /  3.2 km/h 10 mph /  16.1 km/h 60 % 0 in /  0.0 mm
15:07 40.6 °F /  4.8 °C 27.9 °F /  -2.3 °C 30.1 in /  1018.8 hPa ESE 3 mph /  4.8 km/h 9 mph /  14.5 km/h 60 % 0 in /  0.0 mm
15:12 40.8 °F /  4.9 °C 27.7 °F /  -2.4 °C 30.1 in /  1018.8 hPa East 5 mph /  8.0 km/h 9 mph /  14.5 km/h 59 % 0 in /  0.0 mm
15:17 41.2 °F /  5.1 °C 27.5 °F /  -2.5 °C 30.1 in /  1018.8 hPa ENE 7 mph /  11.3 km/h 7 mph /  11.3 km/h 58 % 0 in /  0.0 mm
15:22 41.4 °F /  5.2 °C 27.3 °F /  -2.6 °C 30.1 in /  1018.8 hPa ENE 4 mph /  6.4 km/h 9 mph /  14.5 km/h 57 % 0 in /  0.0 mm
15:27 41.4 °F /  5.2 °C 27.3 °F /  -2.6 °C 30.1 in /  1018.5 hPa ESE 1 mph /  1.6 km/h 9 mph /  14.5 km/h 57 % 0 in /  0.0 mm
15:32 41.5 °F /  5.3 °C 27.9 °F /  -2.3 °C 30.1 in /  1018.5 hPa East 3 mph /  4.8 km/h 9 mph /  14.5 km/h 58 % 0 in /  0.0 mm
15:37 41.9 °F /  5.5 °C 28.2 °F /  -2.1 °C 30.1 in /  1018.8 hPa East 5 mph /  8.0 km/h 9 mph /  14.5 km/h 58 % 0 in /  0.0 mm
15:42 41.7 °F /  5.4 °C 27.7 °F /  -2.4 °C 30.1 in /  1018.8 hPa ESE 1 mph /  1.6 km/h 8 mph /  12.9 km/h 57 % 0 in /  0.0 mm
15:47 41.7 °F /  5.4 °C 27.7 °F /  -2.4 °C 30.1 in /  1018.5 hPa East 2 mph /  3.2 km/h 8 mph /  12.9 km/h 57 % 0 in /  0.0 mm
15:52 41.9 °F /  5.5 °C 28.2 °F /  -2.1 °C 30.1 in /  1018.5 hPa East 3 mph /  4.8 km/h 8 mph /  12.9 km/h 58 % 0 in /  0.0 mm
15:57 41.9 °F /  5.5 °C 27.9 °F /  -2.3 °C 30.1 in /  1018.5 hPa ENE 3 mph /  4.8 km/h 8 mph /  12.9 km/h 57 % 0 in /  0.0 mm
16:02 41.7 °F /  5.4 °C 28 °F /  -2.2 °C 30.1 in /  1018.5 hPa ENE 3 mph /  4.8 km/h 6 mph /  9.7 km/h 58 % 0 in /  0.0 mm
16:12 41.7 °F /  5.4 °C 28 °F /  -2.2 °C 30.1 in /  1018.2 hPa ENE 6 mph /  9.7 km/h 7 mph /  11.3 km/h 58 % 0 in /  0.0 mm
16:17 41.7 °F /  5.4 °C 28 °F /  -2.2 °C 30.1 in /  1018.2 hPa East 3 mph /  4.8 km/h 10 mph /  16.1 km/h 58 % 0 in /  0.0 mm
16:22 41.7 °F /  5.4 °C 28 °F /  -2.2 °C 30.1 in /  1018.2 hPa East 1 mph /  1.6 km/h 10 mph /  16.1 km/h 58 % 0 in /  0.0 mm
16:27 41.5 °F /  5.3 °C 27.5 °F /  -2.5 °C 30.1 in /  1018.2 hPa ENE 1 mph /  1.6 km/h 10 mph /  16.1 km/h 57 % 0 in /  0.0 mm
16:32 41.5 °F /  5.3 °C 27.9 °F /  -2.3 °C 30.1 in /  1018.2 hPa East 2 mph /  3.2 km/h 9 mph /  14.5 km/h 58 % 0 in /  0.0 mm
16:37 41.2 °F /  5.1 °C 27.9 °F /  -2.3 °C 30.1 in /  1018.2 hPa ENE 1 mph /  1.6 km/h 5 mph /  8.0 km/h 59 % 0 in /  0.0 mm
16:42 40.8 °F /  4.9 °C 28 °F /  -2.2 °C 30.1 in /  1018.2 hPa ENE 2 mph /  3.2 km/h 5 mph /  8.0 km/h 60 % 0 in /  0.0 mm
16:47 40.6 °F /  4.8 °C 28.2 °F /  -2.1 °C 30.1 in /  1017.8 hPa ENE 2 mph /  3.2 km/h 4 mph /  6.4 km/h 61 % 0 in /  0.0 mm
16:52 40.5 °F /  4.7 °C 28 °F /  -2.2 °C 30.1 in /  1017.8 hPa Calm   4 mph /  6.4 km/h 61 % 0 in /  0.0 mm
16:57 40.5 °F /  4.7 °C 28 °F /  -2.2 °C 30.1 in /  1017.8 hPa East 1 mph /  1.6 km/h 4 mph /  6.4 km/h 61 % 0 in /  0.0 mm
17:02 40.5 °F /  4.7 °C 28 °F /  -2.2 °C 30.1 in /  1017.8 hPa East 1 mph /  1.6 km/h 4 mph /  6.4 km/h 61 % 0 in /  0.0 mm
17:07 40.1 °F /  4.5 °C 27.7 °F /  -2.4 °C 30.1 in /  1017.8 hPa Calm   2 mph /  3.2 km/h 61 % 0 in /  0.0 mm
17:12 39.9 °F /  4.4 °C 28 °F /  -2.2 °C 30.1 in /  1017.8 hPa Calm   2 mph /  3.2 km/h 62 % 0 in /  0.0 mm
17:17 39.6 °F /  4.2 °C 27.7 °F /  -2.4 °C 30.1 in /  1017.8 hPa East 1 mph /  1.6 km/h 2 mph /  3.2 km/h 62 % 0 in /  0.0 mm
17:22 39.6 °F /  4.2 °C 27.7 °F /  -2.4 °C 30.1 in /  1017.5 hPa Calm   1 mph /  1.6 km/h 62 % 0 in /  0.0 mm
17:27 39.7 °F /  4.3 °C 27.9 °F /  -2.3 °C 30.1 in /  1017.8 hPa Calm   1 mph /  1.6 km/h 62 % 0 in /  0.0 mm
17:32 39.4 °F /  4.1 °C 27.5 °F /  -2.5 °C 30.1 in /  1017.8 hPa Calm   1 mph /  1.6 km/h 62 % 0 in /  0.0 mm
17:37 38.8 °F /  3.8 °C 27.3 °F /  -2.6 °C 30.1 in /  1017.8 hPa Calm   1 mph /  1.6 km/h 63 % 0 in /  0.0 mm
17:42 38.7 °F /  3.7 °C 27.1 °F /  -2.7 °C 30.1 in /  1017.5 hPa Calm   1 mph /  1.6 km/h 63 % 0 in /  0.0 mm
17:47 38.1 °F /  3.4 °C 27 °F /  -2.8 °C 30.1 in /  1017.5 hPa Calm   1 mph /  1.6 km/h 64 % 0 in /  0.0 mm
17:52 38.1 °F /  3.4 °C 27 °F /  -2.8 °C 30.1 in /  1017.5 hPa Calm   1 mph /  1.6 km/h 64 % 0 in /  0.0 mm
17:57 37.9 °F /  3.3 °C 27.1 °F /  -2.7 °C 30.1 in /  1017.5 hPa NE 3 mph /  4.8 km/h   65 % 0 in /  0.0 mm
18:02 37.9 °F /  3.3 °C 26.8 °F /  -2.9 °C 30 in /  1017.2 hPa NNE 1 mph /  1.6 km/h 2 mph /  3.2 km/h 64 % 0 in /  0.0 mm
18:12 37.8 °F /  3.2 °C 26.6 °F /  -3.0 °C 30 in /  1017.2 hPa NE 1 mph /  1.6 km/h 3 mph /  4.8 km/h 64 % 0 in /  0.0 mm
18:17 37.6 °F /  3.1 °C 27 °F /  -2.8 °C 30 in /  1017.2 hPa NE 1 mph /  1.6 km/h 3 mph /  4.8 km/h 65 % 0 in /  0.0 mm
18:22 37.6 °F /  3.1 °C 27 °F /  -2.8 °C 30 in /  1017.2 hPa NE 1 mph /  1.6 km/h 3 mph /  4.8 km/h 65 % 0 in /  0.0 mm
18:32 36.5 °F /  2.5 °C 26.6 °F /  -3.0 °C 30 in /  1017.2 hPa East 1 mph /  1.6 km/h 2 mph /  3.2 km/h 67 % 0 in /  0.0 mm
18:37 36 °F /  2.2 °C 26.8 °F /  -2.9 °C 30 in /  1017.2 hPa Calm   2 mph /  3.2 km/h 69 % 0 in /  0.0 mm
18:42 36 °F /  2.2 °C 27.1 °F /  -2.7 °C 30 in /  1017.2 hPa Calm   3 mph /  4.8 km/h 70 % 0 in /  0.0 mm
18:47 36 °F /  2.2 °C 26.8 °F /  -2.9 °C 30.1 in /  1017.5 hPa Calm   3 mph /  4.8 km/h 69 % 0 in /  0.0 mm
18:52 35.4 °F /  1.9 °C 26.2 °F /  -3.2 °C 30.1 in /  1017.5 hPa SSE 1 mph /  1.6 km/h 2 mph /  3.2 km/h 69 % 0 in /  0.0 mm
19:02 34 °F /  1.1 °C 25.9 °F /  -3.4 °C 30.1 in /  1017.5 hPa Calm   2 mph /  3.2 km/h 72 % 0 in /  0.0 mm
19:07 34.2 °F /  1.2 °C 26.1 °F /  -3.3 °C 30.1 in /  1017.5 hPa Calm   2 mph /  3.2 km/h 72 % 0 in /  0.0 mm
19:12 34 °F /  1.1 °C 25.9 °F /  -3.4 °C 30.1 in /  1017.5 hPa Calm   2 mph /  3.2 km/h 72 % 0 in /  0.0 mm
19:17 34.2 °F /  1.2 °C 26.1 °F /  -3.3 °C 30.1 in /  1017.5 hPa Calm   1 mph /  1.6 km/h 72 % 0 in /  0.0 mm
19:22 34.3 °F /  1.3 °C 25.9 °F /  -3.4 °C 30.1 in /  1017.5 hPa Calm   1 mph /  1.6 km/h 71 % 0 in /  0.0 mm
19:32 34.5 °F /  1.4 °C 25.7 °F /  -3.5 °C 30.1 in /  1017.5 hPa SE 3 mph /  4.8 km/h 3 mph /  4.8 km/h 70 % 0 in /  0.0 mm
19:37 34.5 °F /  1.4 °C 26.1 °F /  -3.3 °C 30.1 in /  1017.5 hPa ESE 1 mph /  1.6 km/h 5 mph /  8.0 km/h 71 % 0 in /  0.0 mm
19:42 34.9 °F /  1.6 °C 26.4 °F /  -3.1 °C 30.1 in /  1017.5 hPa ESE 3 mph /  4.8 km/h 6 mph /  9.7 km/h 71 % 0 in /  0.0 mm
19:47 35.4 °F /  1.9 °C 26.6 °F /  -3.0 °C 30.1 in /  1017.5 hPa SSE 2 mph /  3.2 km/h 10 mph /  16.1 km/h 70 % 0 in /  0.0 mm
19:52 35.2 °F /  1.8 °C 26.8 °F /  -2.9 °C 30.1 in /  1017.5 hPa SE 3 mph /  4.8 km/h 10 mph /  16.1 km/h 71 % 0 in /  0.0 mm
19:57 34.9 °F /  1.6 °C 26.8 °F /  -2.9 °C 30.1 in /  1017.5 hPa East 2 mph /  3.2 km/h 10 mph /  16.1 km/h 72 % 0 in /  0.0 mm
20:02 35.1 °F /  1.7 °C 27 °F /  -2.8 °C 30 in /  1017.2 hPa East 3 mph /  4.8 km/h 10 mph /  16.1 km/h 72 % 0 in /  0.0 mm
20:07 35.1 °F /  1.7 °C 27 °F /  -2.8 °C 30 in /  1017.2 hPa East 6 mph /  9.7 km/h 7 mph /  11.3 km/h 72 % 0 in /  0.0 mm
20:12 35.1 °F /  1.7 °C 27 °F /  -2.8 °C 30 in /  1017.2 hPa ESE 1 mph /  1.6 km/h 7 mph /  11.3 km/h 72 % 0 in /  0.0 mm
20:17 35.1 °F /  1.7 °C 27 °F /  -2.8 °C 30 in /  1017.2 hPa ENE 10 mph /  16.1 km/h 10 mph /  16.1 km/h 72 % 0 in /  0.0 mm
20:22 35.1 °F /  1.7 °C 27 °F /  -2.8 °C 30 in /  1016.5 hPa East 10 mph /  16.1 km/h 11 mph /  17.7 km/h 72 % 0 in /  0.0 mm
20:27 35.2 °F /  1.8 °C 27.1 °F /  -2.7 °C 30 in /  1016.8 hPa ESE 10 mph /  16.1 km/h 14 mph /  22.5 km/h 72 % 0 in /  0.0 mm
20:32 35.4 °F /  1.9 °C 27.7 °F /  -2.4 °C 30 in /  1016.5 hPa East 6 mph /  9.7 km/h 14 mph /  22.5 km/h 73 % 0 in /  0.0 mm
20:37 35.8 °F /  2.1 °C 28 °F /  -2.2 °C 30 in /  1016.5 hPa East 7 mph /  11.3 km/h 14 mph /  22.5 km/h 73 % 0 in /  0.0 mm
20:42 35.8 °F /  2.1 °C 28.4 °F /  -2.0 °C 30 in /  1016.5 hPa East 6 mph /  9.7 km/h 12 mph /  19.3 km/h 74 % 0 in /  0.0 mm
20:47 36 °F /  2.2 °C 28.4 °F /  -2.0 °C 30 in /  1016.5 hPa SE 2 mph /  3.2 km/h 12 mph /  19.3 km/h 74 % 0 in /  0.0 mm
20:52 36.1 °F /  2.3 °C 28.6 °F /  -1.9 °C 30 in /  1016.5 hPa SE 2 mph /  3.2 km/h 12 mph /  19.3 km/h 74 % 0 in /  0.0 mm
20:57 36.1 °F /  2.3 °C 28.9 °F /  -1.7 °C 30 in /  1016.5 hPa East 2 mph /  3.2 km/h 11 mph /  17.7 km/h 75 % 0 in /  0.0 mm
21:02 36.1 °F /  2.3 °C 29.7 °F /  -1.3 °C 30 in /  1016.8 hPa SE 4 mph /  6.4 km/h 11 mph /  17.7 km/h 77 % 0 in /  0.0 mm
21:07 36.9 °F /  2.7 °C 30.6 °F /  -0.8 °C 30 in /  1016.5 hPa ESE 10 mph /  16.1 km/h 14 mph /  22.5 km/h 78 % 0 in /  0.0 mm
21:12 37.8 °F /  3.2 °C 31.5 °F /  -0.3 °C 30 in /  1016.5 hPa SE 10 mph /  16.1 km/h 16 mph /  25.7 km/h 78 % 0 in /  0.0 mm
21:17 38.1 °F /  3.4 °C 31.8 °F /  -0.1 °C 30 in /  1016.8 hPa SE 10 mph /  16.1 km/h 16 mph /  25.7 km/h 78 % 0 in /  0.0 mm
21:22 38.3 °F /  3.5 °C 32.7 °F /  0.4 °C 30 in /  1016.5 hPa SE 13 mph /  20.9 km/h 16 mph /  25.7 km/h 80 % 0 in /  0.0 mm
21:27 38.5 °F /  3.6 °C 33.4 °F /  0.8 °C 30 in /  1016.5 hPa SE 11 mph /  17.7 km/h 18 mph /  29.0 km/h 82 % 0 in /  0.0 mm
21:32 38.7 °F /  3.7 °C 34 °F /  1.1 °C 30 in /  1016.5 hPa SE 9 mph /  14.5 km/h 18 mph /  29.0 km/h 83 % 0 in /  0.0 mm
21:37 38.7 °F /  3.7 °C 34 °F /  1.1 °C 30 in /  1016.1 hPa SE 7 mph /  11.3 km/h 19 mph /  30.6 km/h 83 % 0 in /  0.0 mm
21:42 38.1 °F /  3.4 °C 34 °F /  1.1 °C 30 in /  1016.1 hPa SE 9 mph /  14.5 km/h 19 mph /  30.6 km/h 85 % 0 in /  0.0 mm
21:47 37.9 °F /  3.3 °C 34.2 °F /  1.2 °C 30 in /  1015.8 hPa SE 4 mph /  6.4 km/h 19 mph /  30.6 km/h 86 % 0.01 in /  0.3 mm
21:52 37.2 °F /  2.9 °C 33.4 °F /  0.8 °C 30 in /  1015.8 hPa ESE 3 mph /  4.8 km/h 19 mph /  30.6 km/h 86 % 0.01 in /  0.3 mm
21:57 36.9 °F /  2.7 °C 33.4 °F /  0.8 °C 30 in /  1015.8 hPa SSE 3 mph /  4.8 km/h 16 mph /  25.7 km/h 87 % 0.01 in /  0.3 mm
22:02 37.2 °F /  2.9 °C 34 °F /  1.1 °C 30 in /  1015.5 hPa ESE 9 mph /  14.5 km/h 16 mph /  25.7 km/h 88 % 0.01 in /  0.3 mm
22:12 37.6 °F /  3.1 °C 34 °F /  1.1 °C 30 in /  1015.5 hPa ESE 4 mph /  6.4 km/h 17 mph /  27.4 km/h 87 % 0.01 in /  0.3 mm
22:17 37 °F /  2.8 °C 33.6 °F /  0.9 °C 30 in /  1015.5 hPa SE 4 mph /  6.4 km/h 17 mph /  27.4 km/h 87 % 0.01 in /  0.3 mm
22:22 36.9 °F /  2.7 °C 33.6 °F /  0.9 °C 30 in /  1015.5 hPa SE 4 mph /  6.4 km/h 17 mph /  27.4 km/h 88 % 0.01 in /  0.3 mm
22:27 36.7 °F /  2.6 °C 33.4 °F /  0.8 °C 30 in /  1015.5 hPa SSE 3 mph /  4.8 km/h 10 mph /  16.1 km/h 88 % 0.01 in /  0.3 mm
22:32 36.7 °F /  2.6 °C 33.4 °F /  0.8 °C 30 in /  1015.5 hPa SSE 5 mph /  8.0 km/h 10 mph /  16.1 km/h 88 % 0.01 in /  0.3 mm
22:37 36.7 °F /  2.6 °C 33.8 °F /  1.0 °C 30 in /  1015.5 hPa East 6 mph /  9.7 km/h 8 mph /  12.9 km/h 89 % 0.01 in /  0.3 mm
22:42 36.9 °F /  2.7 °C 34 °F /  1.1 °C 30 in /  1015.5 hPa SSE 3 mph /  4.8 km/h 8 mph /  12.9 km/h 89 % 0.01 in /  0.3 mm
22:47 37 °F /  2.8 °C 34.2 °F /  1.2 °C 30 in /  1015.5 hPa SE 3 mph /  4.8 km/h 9 mph /  14.5 km/h 89 % 0 in /  0.0 mm
22:57 37.6 °F /  3.1 °C 34.7 °F /  1.5 °C 30 in /  1015.5 hPa SE 4 mph /  6.4 km/h 9 mph /  14.5 km/h 89 % 0 in /  0.0 mm
23:07 37.2 °F /  2.9 °C 34 °F /  1.1 °C 30 in /  1015.5 hPa SSE 4 mph /  6.4 km/h 11 mph /  17.7 km/h 88 % 0 in /  0.0 mm
23:12 37 °F /  2.8 °C 33.6 °F /  0.9 °C 30 in /  1015.5 hPa ESE 5 mph /  8.0 km/h 11 mph /  17.7 km/h 87 % 0 in /  0.0 mm
23:17 37 °F /  2.8 °C 33.6 °F /  0.9 °C 30 in /  1015.5 hPa ESE 2 mph /  3.2 km/h 12 mph /  19.3 km/h 87 % 0 in /  0.0 mm
23:32 36.5 °F /  2.5 °C 33.1 °F /  0.6 °C 30 in /  1015.5 hPa SE 2 mph /  3.2 km/h 11 mph /  17.7 km/h 87 % 0 in /  0.0 mm
23:37 36.3 °F /  2.4 °C 32.9 °F /  0.5 °C 30 in /  1015.5 hPa ESE 4 mph /  6.4 km/h 7 mph /  11.3 km/h 87 % 0 in /  0.0 mm
23:42 36.7 °F /  2.6 °C 32.9 °F /  0.5 °C 30 in /  1015.5 hPa SE 3 mph /  4.8 km/h 7 mph /  11.3 km/h 86 % 0 in /  0.0 mm
23:52 36.3 °F /  2.4 °C 32.2 °F /  0.1 °C 30 in /  1015.5 hPa ESE 4 mph /  6.4 km/h 17 mph /  27.4 km/h 85 % 0 in /  0.0 mm
Meteo18
Compliments of Weather Underground - 4 mb

Script developed by  Jim McMurry - jmcmurry@mwt.net Adapted for the template by  Wim van der Kuil - Leuven-Template.eu

You find our weather info also at:

European Weather Network

Weather Underground

Equipment we use:

Weather-station
Davis Vue

Weather-program
Meteohub

Weather-server
Raspberry PI 2 B+

Provider
1 and 1

Davis Vue

Meteohub

Raspberry PI 2 B+

1 and 1